Time;durP1;ratioP1;P1;durP2;ratioP2;P2;SDS_P1;SDS_P2;PMS_P1;PMS_P2;Temp;Humidity;BMP_temperature;BMP_pressure;BME280_temperature;BME280_humidity;BME280_pressure;Samples;Min_cycle;Max_cycle;Signal;HPM_P1;HPM_P2
2023/04/14 00:01:29;;;;;;;4.32;3.33;;;;;;;7.85;71.90;97900.53;5066392;28;20044;-70
2023/04/14 00:03:56;;;;;;;4.55;3.80;;;;;;;7.85;71.85;97905.81;5066046;28;20056;-71
2023/04/14 00:06:22;;;;;;;4.72;4.20;;;;;;;7.86;71.92;97893.47;5066307;28;20041;-71
2023/04/14 00:08:49;;;;;;;3.97;3.50;;;;;;;7.86;71.88;97891.66;5066030;28;20072;-71
2023/04/14 00:11:17;;;;;;;5.68;4.65;;;;;;;7.85;71.96;97884.69;5066166;28;20041;-70
2023/04/14 00:13:44;;;;;;;10.50;8.38;;;;;;;7.83;72.09;97883.97;5066372;28;20051;-71
2023/04/14 00:16:11;;;;;;;8.13;6.03;;;;;;;7.83;72.17;97878.69;5064974;28;20044;-71
2023/04/14 00:18:38;;;;;;;6.57;5.28;;;;;;;7.82;72.06;97871.72;5065531;28;20071;-71
2023/04/14 00:21:04;;;;;;;6.70;5.43;;;;;;;7.81;72.26;97877.09;5065421;28;20174;-71
2023/04/14 00:23:31;;;;;;;6.35;5.18;;;;;;;7.79;72.23;97871.91;5065993;28;20044;-71
2023/04/14 00:25:58;;;;;;;5.60;4.30;;;;;;;7.78;72.18;97874.66;5065723;28;20305;-71
2023/04/14 00:28:26;;;;;;;5.35;4.00;;;;;;;7.69;72.04;97871.69;5065948;28;20051;-70
2023/04/14 00:30:52;;;;;;;3.70;3.08;;;;;;;7.67;71.98;97867.47;5065841;28;20037;-71
2023/04/14 00:33:19;;;;;;;3.33;2.80;;;;;;;6.41;72.00;97664.13;5065840;28;20044;-71
2023/04/14 00:35:45;;;;;;;3.83;2.50;;;;;;;7.69;72.06;97882.25;5066146;28;20090;-71
2023/04/14 00:38:12;;;;;;;4.13;2.67;;;;;;;7.68;72.14;97888.47;5065492;28;20043;-71
2023/04/14 00:40:39;;;;;;;3.00;2.47;;;;;;;7.65;72.28;97885.19;5065967;28;20057;-71
2023/04/14 00:43:05;;;;;;;3.25;2.55;;;;;;;7.63;72.48;97895.84;5065475;28;20128;-70
2023/04/14 00:45:42;;;;;;;3.92;2.65;;;;;;;7.25;72.78;97827.16;5065697;28;20178;-70
2023/04/14 00:48:09;;;;;;;2.67;2.28;;;;;;;7.61;72.39;97891.59;5065936;28;20053;-70
2023/04/14 00:50:36;;;;;;;3.63;2.60;;;;;;;7.59;72.50;97881.16;5065485;28;20301;-70
2023/04/14 00:53:03;;;;;;;3.33;2.72;;;;;;;7.57;72.86;97879.56;5065832;28;20053;-70
2023/04/14 00:55:30;;;;;;;3.72;2.67;;;;;;;7.19;72.73;97805.66;5065362;28;20052;-70
2023/04/14 00:57:57;;;;;;;3.00;2.60;;;;;;;7.58;72.90;97870.72;5065822;28;20045;-70
2023/04/14 01:00:24;;;;;;;3.20;2.53;;;;;;;7.58;72.89;97876.00;5065777;28;20102;-70
2023/04/14 01:02:53;;;;;;;3.45;2.60;;;;;;;7.39;72.88;97855.28;5065780;28;20041;-70
2023/04/14 01:05:20;;;;;;;3.22;2.88;;;;;;;7.31;72.37;97845.22;5065507;28;20082;-71
2023/04/14 01:07:48;;;;;;;3.10;2.60;;;;;;;7.41;72.36;97873.63;5065789;28;20109;-71
2023/04/14 01:10:16;;;;;;;3.53;2.42;;;;;;;7.29;72.93;97864.69;5064502;28;20049;-70
2023/04/14 01:13:14;;;;;;;13.63;9.90;;;;;;;7.36;74.14;97869.50;5065874;28;20040;-70
2023/04/14 01:15:47;;;;;;;6.47;4.20;;;;;;;7.32;73.01;97875.88;5064935;28;20041;-70
2023/04/14 01:18:21;;;;;;;4.45;2.83;;;;;;;7.22;72.84;97874.78;5065206;28;20100;-70
2023/04/14 01:20:51;;;;;;;3.20;2.22;;;;;;;7.10;72.74;97869.47;5065730;28;20063;-70
2023/04/14 01:23:23;;;;;;;2.80;2.00;;;;;;;6.98;72.99;97873.75;5065051;28;20048;-70
2023/04/14 01:26:15;;;;;;;2.80;2.10;;;;;;;6.83;73.30;97877.34;5065348;28;20061;-71
2023/04/14 01:29:17;;;;;;;2.50;1.73;;;;;;;6.66;73.41;97878.38;5065315;28;20043;-70
2023/04/14 01:31:47;;;;;;;2.60;1.80;;;;;;;6.56;73.44;97877.28;5065229;28;20044;-71
2023/04/14 01:34:21;;;;;;;2.85;2.03;;;;;;;6.52;73.45;97876.59;5068901;28;20289;-70
2023/04/14 01:36:54;;;;;;;2.63;1.70;;;;;;;6.43;73.46;97877.19;5069454;28;20049;-71
2023/04/14 01:39:23;;;;;;;3.05;1.80;;;;;;;6.18;73.44;97848.91;5067982;28;20040;-70
2023/04/14 01:41:57;;;;;;;2.30;1.67;;;;;;;6.27;73.71;97873.81;5069058;28;20106;-71
2023/04/14 01:44:25;;;;;;;2.20;1.50;;;;;;;6.15;73.73;97878.03;5068707;28;20339;-71
2023/04/14 01:46:58;;;;;;;2.75;1.70;;;;;;;6.12;73.99;97878.22;5068914;28;20308;-71
2023/04/14 01:49:26;;;;;;;2.53;1.73;;;;;;;6.07;73.89;97875.00;5068844;28;20049;-70
2023/04/14 01:51:55;;;;;;;2.88;1.90;;;;;;;6.02;73.89;97883.19;5068560;28;20062;-69
2023/04/14 01:54:22;;;;;;;2.55;1.80;;;;;;;5.99;74.04;97890.41;5068395;28;20063;-70
2023/04/14 01:56:51;;;;;;;3.50;1.58;;;;;;;5.92;73.75;97883.81;5068743;28;20095;-70
2023/04/14 01:59:20;;;;;;;2.45;1.60;;;;;;;5.83;73.64;97885.22;5068125;28;20090;-69
2023/04/14 02:01:50;;;;;;;2.10;1.40;;;;;;;5.76;73.52;97890.00;5068361;28;20045;-69
2023/04/14 02:04:21;;;;;;;3.38;1.80;;;;;;;5.66;73.45;97888.00;5068521;28;20083;-70
2023/04/14 02:06:50;;;;;;;2.30;1.50;;;;;;;5.56;73.57;97882.41;5068818;28;20041;-71
2023/04/14 02:09:19;;;;;;;2.10;1.50;;;;;;;5.48;73.59;97876.75;5068212;28;20045;-71
2023/04/14 02:11:49;;;;;;;2.25;1.50;;;;;;;5.25;73.44;97838.69;5068701;28;20091;-71
2023/04/14 02:14:16;;;;;;;3.85;2.08;;;;;;;5.42;73.66;97862.19;5068007;28;20064;-70
2023/04/14 02:16:44;;;;;;;2.40;1.77;;;;;;;5.37;73.95;97855.53;5068104;28;20095;-71
2023/04/14 02:19:12;;;;;;;2.63;1.55;;;;;;;5.35;73.79;97866.13;5068610;28;20091;-71
2023/04/14 02:21:41;;;;;;;2.35;1.75;;;;;;;5.31;73.61;97850.63;5068007;28;20302;-71
2023/04/14 02:24:08;;;;;;;2.78;1.90;;;;;;;5.28;73.72;97843.75;5068257;28;20201;-70
2023/04/14 02:26:38;;;;;;;2.45;1.60;;;;;;;4.32;73.48;97707.50;5068194;28;20103;-69
2023/04/14 02:29:11;;;;;;;2.70;2.10;;;;;;;5.12;73.83;97856.94;5068367;28;20037;-69
2023/04/14 02:31:42;;;;;;;2.50;1.67;;;;;;;4.57;73.79;97756.78;5068368;28;20201;-70
2023/04/14 02:34:12;;;;;;;2.30;1.67;;;;;;;4.87;74.00;97801.47;5068039;28;20087;-71
2023/04/14 02:36:47;;;;;;;2.47;1.60;;;;;;;5.09;74.03;97822.97;5068090;28;20367;-70
2023/04/14 02:39:17;;;;;;;2.35;1.55;;;;;;;4.84;73.84;97800.78;5068087;28;20182;-70
2023/04/14 02:41:46;;;;;;;5.70;4.28;;;;;;;4.41;74.01;97727.94;5068146;28;20216;-69
2023/04/14 02:44:20;;;;;;;3.42;2.53;;;;;;;4.99;74.05;97837.53;5067176;28;20041;-70
2023/04/14 02:46:55;;;;;;;2.80;1.80;;;;;;;4.95;74.06;97835.19;5067697;28;20304;-70
2023/04/14 02:49:24;;;;;;;2.80;1.75;;;;;;;4.92;74.00;97832.72;5067794;28;20041;-70
2023/04/14 02:51:54;;;;;;;2.20;1.60;;;;;;;4.93;74.16;97818.66;5067749;28;20083;-70
2023/04/14 02:54:22;;;;;;;2.20;1.60;;;;;;;4.96;73.87;97811.47;5067506;28;20044;-70
2023/04/14 02:56:50;;;;;;;3.58;2.00;;;;;;;4.93;73.91;97821.28;5067374;28;20257;-70
2023/04/14 02:59:17;;;;;;;2.70;1.85;;;;;;;4.91;73.86;97816.13;5067771;28;20091;-69
2023/04/14 03:01:45;;;;;;;2.35;1.50;;;;;;;4.88;73.95;97804.94;5067811;28;20044;-70
2023/04/14 03:04:13;;;;;;;3.13;1.80;;;;;;;4.68;73.90;97777.19;5067491;28;20106;-71
2023/04/14 03:06:41;;;;;;;3.40;1.92;;;;;;;4.89;73.95;97810.13;5067741;28;20053;-70
2023/04/14 03:09:09;;;;;;;2.90;1.70;;;;;;;4.92;74.27;97812.56;5066894;28;20045;-69
2023/04/14 03:11:37;;;;;;;2.40;1.70;;;;;;;4.96;74.02;97792.25;5066801;28;20037;-69
2023/04/14 03:14:05;;;;;;;3.08;1.55;;;;;;;4.93;73.82;97816.91;5067240;28;20189;-69
2023/04/14 03:16:33;;;;;;;2.22;1.50;;;;;;;4.92;73.35;97804.69;5067263;28;20037;-69
2023/04/14 03:19:03;;;;;;;2.40;1.60;;;;;;;4.79;73.04;97807.13;5067235;28;20041;-70
2023/04/14 03:21:32;;;;;;;2.15;1.50;;;;;;;4.69;73.28;97811.22;5066889;28;20045;-70
2023/04/14 03:24:00;;;;;;;2.10;1.50;;;;;;;4.59;73.30;97820.53;5067156;28;20040;-70
2023/04/14 03:26:32;;;;;;;2.50;1.77;;;;;;;4.51;73.22;97817.47;5067630;28;20041;-71
2023/04/14 03:29:01;;;;;;;2.40;1.52;;;;;;;4.41;73.56;97800.56;5067021;28;20055;-71
2023/04/14 03:31:32;;;;;;;2.50;1.60;;;;;;;4.39;73.77;97802.41;5067306;28;20041;-70
2023/04/14 03:34:01;;;;;;;2.40;1.92;;;;;;;3.96;73.44;97741.78;5067153;28;20041;-71
2023/04/14 03:36:29;;;;;;;2.28;1.63;;;;;;;4.29;73.74;97830.06;5066634;28;20037;-71
2023/04/14 03:38:58;;;;;;;2.55;1.70;;;;;;;3.17;73.63;97667.44;5067057;28;20045;-71
2023/04/14 03:41:27;;;;;;;2.67;1.65;;;;;;;4.18;73.85;97831.47;5066698;28;20044;-71
2023/04/14 03:43:56;;;;;;;2.35;1.60;;;;;;;4.22;73.58;97833.97;5066273;28;20067;-71
2023/04/14 03:46:25;;;;;;;3.45;1.70;;;;;;;3.93;73.60;97801.41;5066412;28;20068;-71
2023/04/14 03:48:53;;;;;;;2.42;1.80;;;;;;;4.09;73.79;97810.97;5066338;28;20045;-71
2023/04/14 03:51:25;;;;;;;2.55;1.55;;;;;;;4.03;73.83;97799.97;5066577;28;20045;-72
2023/04/14 03:53:55;;;;;;;2.17;1.40;;;;;;;3.96;73.98;97796.84;5066734;28;20083;-71
2023/04/14 03:56:22;;;;;;;2.10;1.40;;;;;;;3.98;73.94;97787.13;5065834;28;20045;-70
2023/04/14 03:58:51;;;;;;;2.10;1.40;;;;;;;4.00;74.40;97773.94;5066419;28;20108;-71
2023/04/14 04:01:24;;;;;;;2.28;1.50;;;;;;;4.01;74.11;97767.75;5066443;28;20056;-70
2023/04/14 04:03:53;;;;;;;2.38;1.50;;;;;;;4.01;74.19;97773.00;5066123;28;20045;-71
2023/04/14 04:06:20;;;;;;;2.20;1.50;;;;;;;4.00;73.96;97753.81;5065698;28;20049;-71
2023/04/14 04:08:49;;;;;;;2.10;1.50;;;;;;;3.99;74.05;97754.72;5066071;28;20102;-71
2023/04/14 04:11:19;;;;;;;2.20;1.60;;;;;;;3.96;73.86;97746.19;5070654;28;20108;-71
2023/04/14 04:13:48;;;;;;;2.30;1.50;;;;;;;3.89;74.11;97766.63;5076165;28;20045;-71
2023/04/14 04:16:15;;;;;;;2.17;1.40;;;;;;;3.79;74.24;97758.41;5075785;28;20052;-71
2023/04/14 04:18:47;;;;;;;2.40;1.50;;;;;;;3.48;74.30;97721.66;5075907;28;20106;-71
2023/04/14 04:21:16;;;;;;;2.40;1.60;;;;;;;3.70;74.40;97768.53;5075597;28;20041;-71
2023/04/14 04:23:48;;;;;;;2.33;1.70;;;;;;;3.63;74.33;97749.69;5076128;28;20037;-71
2023/04/14 04:26:15;;;;;;;2.50;1.60;;;;;;;3.61;74.43;97730.56;5075516;28;20037;-71
2023/04/14 04:28:42;;;;;;;2.35;1.58;;;;;;;3.59;74.49;97711.47;5076498;28;20060;-70
2023/04/14 04:31:10;;;;;;;2.10;1.50;;;;;;;3.61;74.63;97719.25;5075189;28;20037;-71
2023/04/14 04:33:37;;;;;;;2.47;1.60;;;;;;;3.59;74.33;97778.72;5070974;28;20045;-70
2023/04/14 04:36:07;;;;;;;2.40;1.48;;;;;;;3.49;74.68;97742.53;5067101;28;20285;-71
2023/04/14 04:38:34;;;;;;;2.08;1.40;;;;;;;3.44;74.70;97723.59;5066863;28;20045;-71
2023/04/14 04:41:00;;;;;;;2.75;2.00;;;;;;;3.39;74.82;97722.16;5065810;28;20072;-70
2023/04/14 04:43:27;;;;;;;2.20;1.50;;;;;;;3.36;74.95;97725.78;5065605;28;20059;-70
2023/04/14 04:46:20;;;;;;;2.10;1.52;;;;;;;3.39;75.48;97724.75;5065949;28;20044;-70
2023/04/14 04:48:48;;;;;;;2.38;1.50;;;;;;;3.37;74.92;97724.84;5069237;28;20290;-70
2023/04/14 04:51:17;;;;;;;2.20;1.45;;;;;;;3.33;75.24;97722.47;5065393;28;20224;-70
2023/04/14 04:53:44;;;;;;;2.05;1.40;;;;;;;3.31;75.01;97732.16;5065229;28;20041;-71
2023/04/14 04:56:11;;;;;;;2.10;1.40;;;;;;;3.25;75.07;97741.19;5065864;28;20168;-71
2023/04/14 04:58:37;;;;;;;2.75;1.50;;;;;;;3.00;75.37;97699.72;5065864;28;20059;-71
2023/04/14 05:01:08;;;;;;;2.53;1.75;;;;;;;3.24;75.53;97738.66;5065529;28;20102;-70
2023/04/14 05:03:34;;;;;;;2.15;1.60;;;;;;;3.24;75.53;97736.88;5065555;28;20235;-71
2023/04/14 05:06:01;;;;;;;2.30;1.52;;;;;;;3.22;75.48;97736.09;5065323;28;20274;-70
2023/04/14 05:08:29;;;;;;;2.60;1.67;;;;;;;3.22;75.57;97745.75;5068398;28;20037;-71
2023/04/14 05:10:56;;;;;;;2.50;1.70;;;;;;;3.20;75.75;97741.41;5069479;28;20083;-70
2023/04/14 05:13:22;;;;;;;2.53;1.83;;;;;;;3.02;76.10;97694.41;5069410;28;20209;-71
2023/04/14 05:15:49;;;;;;;2.15;1.60;;;;;;;3.34;76.31;97725.00;5069349;28;20037;-70
2023/04/14 05:18:16;;;;;;;2.75;1.63;;;;;;;3.27;75.97;97728.03;5069098;28;20055;-70
2023/04/14 05:20:42;;;;;;;2.40;1.63;;;;;;;3.21;75.92;97726.56;5069141;28;20044;-70
2023/04/14 05:23:09;;;;;;;2.10;1.40;;;;;;;3.20;76.09;97723.09;5069115;28;20198;-69
2023/04/14 05:25:37;;;;;;;2.42;1.67;;;;;;;3.21;75.86;97726.56;5068506;28;20041;-69
2023/04/14 05:28:04;;;;;;;4.07;1.75;;;;;;;3.02;76.02;97815.63;5069368;28;20048;-72
2023/04/14 05:30:31;;;;;;;2.45;1.40;;;;;;;3.18;76.19;97729.34;5069205;28;20281;-70
2023/04/14 05:32:57;;;;;;;2.25;1.65;;;;;;;3.17;76.13;97728.50;5069095;28;20236;-69
2023/04/14 05:35:24;;;;;;;3.92;2.10;;;;;;;3.16;76.37;97734.66;5069281;28;20047;-70
2023/04/14 05:37:51;;;;;;;2.60;1.65;;;;;;;3.14;76.26;97725.19;5068737;28;20043;-70
2023/04/14 05:40:19;;;;;;;2.53;1.80;;;;;;;3.13;76.33;97734.81;5069055;28;20201;-70
2023/04/14 05:42:47;;;;;;;2.67;1.95;;;;;;;3.12;76.28;97735.72;5068618;28;20061;-69
2023/04/14 05:45:14;;;;;;;2.42;1.77;;;;;;;3.09;76.68;97732.44;5068618;28;20040;-70
2023/04/14 05:47:40;;;;;;;2.20;1.70;;;;;;;2.84;76.50;97715.34;5068621;28;20053;-69
2023/04/14 05:50:08;;;;;;;2.45;1.73;;;;;;;3.04;76.35;97737.88;5069092;28;20041;-71
2023/04/14 05:52:35;;;;;;;2.72;1.65;;;;;;;3.08;76.67;97730.72;5068745;28;20255;-70
2023/04/14 05:55:01;;;;;;;2.35;1.60;;;;;;;3.11;76.64;97730.56;5068430;28;20045;-70
2023/04/14 05:57:29;;;;;;;2.50;1.67;;;;;;;2.92;76.69;97707.09;5068489;28;20204;-69
2023/04/14 05:59:57;;;;;;;2.38;1.60;;;;;;;3.09;76.65;97748.13;5069002;28;20342;-70
2023/04/14 06:02:23;;;;;;;2.53;1.70;;;;;;;3.15;76.54;97745.19;5068339;28;20053;-70
2023/04/14 06:04:50;;;;;;;2.75;1.80;;;;;;;3.19;76.43;97744.13;5068866;28;20048;-70
2023/04/14 06:07:17;;;;;;;3.67;1.85;;;;;;;3.24;76.50;97749.13;5068643;28;20049;-70
2023/04/14 06:09:45;;;;;;;2.60;1.88;;;;;;;3.22;76.42;97746.59;5068076;28;20224;-70
2023/04/14 06:12:12;;;;;;;2.67;1.80;;;;;;;3.20;76.39;97753.66;5068215;28;20045;-71
2023/04/14 06:14:39;;;;;;;2.50;1.70;;;;;;;1.25;76.43;97426.19;5068335;28;20041;-71
2023/04/14 06:17:08;;;;;;;2.30;1.60;;;;;;;3.16;76.69;97739.88;5068028;28;20339;-71
2023/04/14 06:19:34;;;;;;;2.45;1.65;;;;;;;3.20;76.47;97745.81;5067110;28;20045;-71
2023/04/14 06:22:01;;;;;;;2.25;1.60;;;;;;;3.16;76.91;97752.13;5068562;28;20190;-70
2023/04/14 06:24:28;;;;;;;2.67;1.67;;;;;;;3.15;76.83;97743.44;5068137;28;20075;-70
2023/04/14 06:26:54;;;;;;;3.00;2.05;;;;;;;3.20;77.00;97746.66;5068127;28;20086;-71
2023/04/14 06:29:21;;;;;;;2.28;1.50;;;;;;;3.21;77.14;97744.88;5067795;28;20045;-70
2023/04/14 06:31:48;;;;;;;2.75;1.70;;;;;;;3.24;77.44;97747.34;5068313;28;20067;-71
2023/04/14 06:34:16;;;;;;;2.42;1.70;;;;;;;3.24;76.94;97743.88;5068192;28;20301;-70
2023/04/14 06:36:42;;;;;;;2.80;1.90;;;;;;;3.23;76.86;97743.03;5068771;28;20058;-71
2023/04/14 06:39:10;;;;;;;2.60;2.08;;;;;;;3.22;77.03;97720.41;5067728;28;20052;-71
2023/04/14 06:41:36;;;;;;;2.30;1.52;;;;;;;3.25;77.10;97728.09;5068095;28;20041;-70
2023/04/14 06:44:03;;;;;;;2.40;1.70;;;;;;;3.25;76.98;97738.56;5067291;28;20057;-71
2023/04/14 06:46:29;;;;;;;2.35;1.60;;;;;;;3.26;77.27;97724.56;5067734;28;20057;-71
2023/04/14 06:48:56;;;;;;;3.00;1.88;;;;;;;3.11;77.12;97707.88;5067973;28;20040;-71
2023/04/14 06:51:25;;;;;;;2.40;1.50;;;;;;;3.30;77.28;97730.47;5067471;28;20087;-71
2023/04/14 06:53:52;;;;;;;3.10;1.70;;;;;;;3.06;77.48;97685.47;5067496;28;20049;-71
2023/04/14 06:56:19;;;;;;;2.67;1.83;;;;;;;3.31;77.45;97722.53;5067257;28;20079;-71
2023/04/14 06:58:46;;;;;;;2.30;1.50;;;;;;;3.34;77.42;97711.91;5067823;28;20044;-71
2023/04/14 07:01:12;;;;;;;2.30;1.80;;;;;;;3.31;77.49;97717.31;5067792;28;20052;-71
2023/04/14 07:03:39;;;;;;;3.17;1.80;;;;;;;3.31;77.53;97706.00;5067639;28;20095;-71
2023/04/14 07:06:08;;;;;;;2.83;1.70;;;;;;;2.45;77.57;97569.09;5067550;28;20106;-71
2023/04/14 07:08:36;;;;;;;2.90;1.80;;;;;;;3.29;77.77;97692.13;5067036;28;20045;-71
2023/04/14 07:11:05;;;;;;;3.45;1.65;;;;;;;2.80;77.63;97631.84;5067463;28;20041;-71
2023/04/14 07:13:32;;;;;;;2.88;1.80;;;;;;;3.32;77.94;97711.16;5067198;28;20051;-70
2023/04/14 07:16:00;;;;;;;2.55;1.70;;;;;;;3.33;77.87;97702.38;5066827;28;20312;-72
2023/04/14 07:18:27;;;;;;;2.50;1.75;;;;;;;3.35;78.05;97715.38;5067462;28;20041;-71
2023/04/14 07:20:54;;;;;;;2.45;1.63;;;;;;;3.32;77.77;97703.28;5067352;28;20049;-70
2023/04/14 07:23:21;;;;;;;2.58;1.75;;;;;;;3.34;77.87;97711.06;5067366;28;20053;-71
2023/04/14 07:25:51;;;;;;;2.35;1.58;;;;;;;3.34;77.94;97700.59;5066732;28;20095;-71
2023/04/14 07:28:18;;;;;;;2.40;1.60;;;;;;;3.34;77.99;97701.44;5067007;28;20037;-71
2023/04/14 07:30:45;;;;;;;2.20;1.60;;;;;;;2.96;77.77;97622.28;5066470;28;20047;-72
2023/04/14 07:33:12;;;;;;;2.25;1.60;;;;;;;3.40;77.90;97688.03;5066098;28;20308;-71
2023/04/14 07:35:39;;;;;;;2.63;1.77;;;;;;;3.42;77.95;97688.78;5066749;28;20043;-72
2023/04/14 07:38:06;;;;;;;2.70;1.70;;;;;;;3.44;77.95;97697.41;5066757;28;20293;-71
2023/04/14 07:40:33;;;;;;;2.20;1.60;;;;;;;3.45;77.76;97688.63;5066973;28;20107;-71
2023/04/14 07:43:01;;;;;;;2.30;1.70;;;;;;;3.10;77.83;97625.03;5066497;28;20057;-71
2023/04/14 07:45:28;;;;;;;3.35;1.70;;;;;;;3.48;77.99;97696.31;5066893;28;20091;-71
2023/04/14 07:47:55;;;;;;;2.17;1.60;;;;;;;3.49;78.36;97690.16;5066900;28;20045;-71
2023/04/14 07:50:21;;;;;;;2.38;1.75;;;;;;;3.50;78.00;97676.13;5065811;28;20332;-71
2023/04/14 07:52:48;;;;;;;5.90;2.78;;;;;;;3.50;78.17;97684.00;5066522;28;20098;-71
2023/04/14 07:55:15;;;;;;;2.40;1.70;;;;;;;3.53;78.34;97696.91;5066442;28;20052;-71
2023/04/14 07:57:42;;;;;;;2.40;1.70;;;;;;;3.59;78.45;97700.16;5066469;28;20308;-70
2023/04/14 08:00:11;;;;;;;2.92;1.73;;;;;;;3.63;78.63;97702.50;5066664;28;20049;-71
2023/04/14 08:02:38;;;;;;;2.13;1.63;;;;;;;3.63;78.13;97705.13;5066300;28;20040;-71
2023/04/14 08:05:05;;;;;;;2.53;1.70;;;;;;;3.65;78.07;97708.53;5065992;28;20037;-71
2023/04/14 08:07:32;;;;;;;2.92;2.00;;;;;;;2.94;78.60;97578.81;5066086;28;20041;-71
2023/04/14 08:09:59;;;;;;;4.40;1.85;;;;;;;3.69;78.06;97702.19;5066427;28;20040;-71
2023/04/14 08:12:25;;;;;;;2.80;1.85;;;;;;;3.70;78.28;97698.66;5066463;28;20045;-71
2023/04/14 08:14:55;;;;;;;2.30;1.60;;;;;;;3.70;78.05;97695.19;5065740;28;20053;-71
2023/04/14 08:17:24;;;;;;;2.20;1.60;;;;;;;3.66;78.25;97702.34;5066127;28;20051;-70
2023/04/14 08:19:50;;;;;;;4.43;2.15;;;;;;;3.68;78.20;97694.41;5066084;28;20289;-71
2023/04/14 08:22:17;;;;;;;3.80;1.95;;;;;;;3.66;78.59;97697.13;5066287;28;20309;-71
2023/04/14 08:24:44;;;;;;;2.50;1.80;;;;;;;3.66;78.12;97694.50;5066292;28;20111;-71
2023/04/14 08:27:10;;;;;;;2.83;2.10;;;;;;;3.64;78.36;97687.66;5065653;28;20045;-71
2023/04/14 08:29:37;;;;;;;2.40;1.70;;;;;;;3.49;78.62;97663.13;5066128;28;20301;-71
2023/04/14 08:32:05;;;;;;;2.60;1.90;;;;;;;3.44;78.30;97642.41;5066006;28;20348;-70
2023/04/14 08:34:33;;;;;;;2.55;2.00;;;;;;;2.93;78.71;97564.03;5065793;28;20036;-71
2023/04/14 08:37:00;;;;;;;2.70;2.00;;;;;;;3.66;78.56;97684.00;5065977;28;20102;-71
2023/04/14 08:39:27;;;;;;;4.15;1.80;;;;;;;3.67;78.58;97669.13;5065706;28;20138;-70
2023/04/14 08:41:55;;;;;;;3.38;2.20;;;;;;;3.65;78.38;97679.69;5064314;28;20040;-71
2023/04/14 08:44:22;;;;;;;3.65;2.60;;;;;;;3.65;78.47;97663.13;5066250;28;20107;-70
2023/04/14 08:46:51;;;;;;;2.45;1.75;;;;;;;3.61;78.45;97670.31;5064665;28;20033;-71
2023/04/14 08:49:27;;;;;;;3.45;1.80;;;;;;;3.61;78.64;97641.50;5065968;28;20158;-70
2023/04/14 08:51:58;;;;;;;2.35;1.73;;;;;;;3.63;78.85;97623.94;5065604;28;20059;-71
2023/04/14 08:54:26;;;;;;;2.20;1.60;;;;;;;3.63;78.44;97623.09;5065211;28;20041;-70
2023/04/14 08:56:54;;;;;;;3.05;2.38;;;;;;;3.64;78.45;97635.25;5065312;28;20063;-70
2023/04/14 08:59:21;;;;;;;2.40;1.80;;;;;;;2.90;78.17;97531.03;5065877;28;20049;-71
2023/04/14 09:01:48;;;;;;;2.58;1.83;;;;;;;3.35;77.96;97595.78;5064633;28;20033;-71
2023/04/14 09:04:16;;;;;;;2.38;1.70;;;;;;;3.23;78.43;97587.72;5064506;28;20209;-71
2023/04/14 09:06:42;;;;;;;2.50;1.70;;;;;;;3.39;77.89;97622.63;5065614;28;20313;-70
2023/04/14 09:09:11;;;;;;;2.40;1.80;;;;;;;3.60;77.99;97680.88;5064771;28;20052;-70
2023/04/14 09:11:38;;;;;;;2.60;1.80;;;;;;;3.56;77.91;97672.34;5065381;28;20109;-71
2023/04/14 09:14:06;;;;;;;3.28;2.10;;;;;;;3.48;77.85;97648.31;5065681;28;20049;-71
2023/04/14 09:16:33;;;;;;;2.90;2.08;;;;;;;3.26;78.02;97632.91;5065234;28;20071;-71
2023/04/14 09:19:00;;;;;;;2.63;2.08;;;;;;;3.44;78.35;97671.22;5064341;28;20037;-70
2023/04/14 09:21:27;;;;;;;2.97;1.90;;;;;;;3.40;78.23;97659.22;5065266;28;20228;-70
2023/04/14 09:23:54;;;;;;;3.63;2.13;;;;;;;3.38;78.48;97682.03;5065036;28;20041;-71
2023/04/14 09:26:22;;;;;;;2.63;2.00;;;;;;;3.38;78.54;97689.03;5065556;28;20119;-71
2023/04/14 09:28:49;;;;;;;3.35;1.95;;;;;;;3.36;78.52;97686.50;5065291;28;20048;-70
2023/04/14 09:31:16;;;;;;;2.83;2.10;;;;;;;3.10;78.29;97658.22;5065221;28;20041;-71
2023/04/14 09:33:46;;;;;;;2.63;1.90;;;;;;;3.27;78.24;97689.59;5064909;28;20040;-70
2023/04/14 09:36:18;;;;;;;4.03;2.35;;;;;;;3.20;78.43;97678.59;5064802;28;20041;-71
2023/04/14 09:38:45;;;;;;;3.13;2.20;;;;;;;3.16;78.13;97670.97;5064894;28;20305;-70
2023/04/14 09:41:15;;;;;;;2.78;2.15;;;;;;;3.09;78.25;97664.38;5065370;28;20048;-71
2023/04/14 09:43:44;;;;;;;3.22;2.00;;;;;;;3.04;78.28;97669.00;5064609;28;20187;-71
2023/04/14 09:46:11;;;;;;;3.25;1.80;;;;;;;3.00;78.29;97670.06;5065630;28;20244;-71
2023/04/14 09:48:50;;;;;;;3.70;1.80;;;;;;;2.96;78.64;97684.25;5064389;28;20041;-71
2023/04/14 09:51:22;;;;;;;2.60;2.00;;;;;;;2.96;78.54;97686.88;5064640;28;20352;-71
2023/04/14 09:53:49;;;;;;;2.60;1.70;;;;;;;2.91;78.47;97688.88;5064966;28;20051;-70
2023/04/14 09:56:16;;;;;;;3.10;2.03;;;;;;;2.92;78.38;97714.09;5068642;28;20045;-71
2023/04/14 09:58:44;;;;;;;2.88;1.90;;;;;;;2.90;78.23;97708.94;5068996;28;20112;-71
2023/04/14 10:01:12;;;;;;;2.90;2.15;;;;;;;2.67;79.42;97673.47;5068465;28;20049;-73
2023/04/14 10:03:40;;;;;;;3.65;2.00;;;;;;;2.45;79.77;97600.47;5068318;28;20033;-71
2023/04/14 10:06:08;;;;;;;2.30;1.70;;;;;;;3.08;78.41;97710.63;5068820;28;20193;-70
2023/04/14 10:08:37;;;;;;;3.35;2.10;;;;;;;3.04;78.29;97703.03;5068807;28;20079;-71
2023/04/14 10:11:20;;;;;;;2.70;1.90;;;;;;;2.97;78.77;97723.41;5068286;28;20041;-70
2023/04/14 10:13:49;;;;;;;2.40;1.85;;;;;;;2.93;78.34;97723.66;5068818;28;20052;-70
2023/04/14 10:16:16;;;;;;;2.60;1.80;;;;;;;2.38;78.59;97666.22;5068520;28;20047;-71
2023/04/14 10:18:43;;;;;;;2.67;2.00;;;;;;;1.31;78.54;97467.66;5068622;28;20041;-71
2023/04/14 10:21:10;;;;;;;2.50;1.90;;;;;;;2.52;78.95;97666.41;5068270;28;20051;-70
2023/04/14 10:23:38;;;;;;;2.30;1.70;;;;;;;1.38;78.76;97478.63;5068293;28;20075;-71
2023/04/14 10:26:06;;;;;;;2.80;1.90;;;;;;;2.81;78.87;97719.88;5067802;28;20258;-70
2023/04/14 10:28:35;;;;;;;2.20;1.63;;;;;;;2.77;78.93;97720.97;5068294;28;20095;-70
2023/04/14 10:31:05;;;;;;;2.55;1.90;;;;;;;2.75;79.24;97723.66;5067625;28;20048;-70
2023/04/14 10:33:33;;;;;;;2.40;1.83;;;;;;;2.73;79.13;97737.72;5067752;28;20053;-71
2023/04/14 10:36:00;;;;;;;2.53;1.88;;;;;;;2.73;78.71;97725.50;5067736;28;20104;-71
2023/04/14 10:38:38;;;;;;;2.78;1.80;;;;;;;2.50;79.24;97686.53;5067749;28;20063;-71
2023/04/14 10:41:06;;;;;;;2.72;1.90;;;;;;;2.22;79.04;97656.53;5068069;28;20064;-70
2023/04/14 10:43:35;;;;;;;2.80;1.75;;;;;;;2.67;79.28;97731.03;5067455;28;20283;-70
2023/04/14 10:46:04;;;;;;;2.78;2.03;;;;;;;2.69;79.27;97742.25;5067433;28;20146;-70
2023/04/14 10:48:37;;;;;;;2.70;1.90;;;;;;;2.67;79.21;97727.56;5067730;28;20045;-70
2023/04/14 10:51:05;;;;;;;2.40;1.83;;;;;;;2.70;79.03;97715.19;5068030;28;20205;-71
2023/04/14 10:53:44;;;;;;;2.97;2.10;;;;;;;2.72;79.19;97712.50;5067500;28;20300;-71
2023/04/14 10:56:11;;;;;;;2.90;1.95;;;;;;;2.72;79.14;97723.81;5067276;28;20083;-71
2023/04/14 10:58:38;;;;;;;2.60;1.77;;;;;;;2.72;79.26;97729.03;5067311;28;20094;-70
2023/04/14 11:01:26;;;;;;;4.40;2.50;;;;;;;2.69;79.54;97723.94;5067268;28;20041;-70
2023/04/14 11:03:53;;;;;;;2.92;2.08;;;;;;;2.68;79.42;97731.88;5067513;28;20098;-70
2023/04/14 11:06:48;;;;;;;3.03;1.95;;;;;;;2.68;79.84;97727.50;5066874;28;20040;-69
2023/04/14 11:09:26;;;;;;;2.67;1.88;;;;;;;2.52;79.73;97701.25;5067230;28;20358;-70
2023/04/14 11:11:55;;;;;;;3.00;2.42;;;;;;;2.71;79.29;97726.50;5067009;28;20049;-71
2023/04/14 11:14:31;;;;;;;2.60;1.80;;;;;;;2.71;79.64;97722.09;5067283;28;20091;-71
2023/04/14 11:17:01;;;;;;;2.80;1.90;;;;;;;2.08;79.22;97606.69;5067255;28;20045;-69
2023/04/14 11:19:28;;;;;;;4.03;1.95;;;;;;;0.97;79.42;97428.44;5066913;28;20040;-69
2023/04/14 11:21:56;;;;;;;5.38;3.58;;;;;;;2.71;79.19;97724.72;5066783;28;20037;-71
2023/04/14 11:24:23;;;;;;;3.00;2.08;;;;;;;2.71;79.24;97727.34;5067196;28;20041;-71
2023/04/14 11:26:51;;;;;;;2.70;1.80;;;;;;;2.69;79.37;97712.63;5066129;28;20037;-71
2023/04/14 11:29:19;;;;;;;2.95;1.90;;;;;;;2.70;79.53;97722.19;5066319;28;20065;-70
2023/04/14 11:31:46;;;;;;;2.90;1.90;;;;;;;2.72;79.51;97718.56;5067008;28;20037;-71
2023/04/14 11:34:14;;;;;;;2.90;2.00;;;;;;;2.75;79.47;97710.56;5065761;28;20040;-71
2023/04/14 11:36:41;;;;;;;2.90;1.90;;;;;;;2.78;79.49;97710.41;5066788;28;20041;-71
2023/04/14 11:39:08;;;;;;;2.80;2.00;;;;;;;2.78;79.24;97723.50;5066626;28;20087;-71
2023/04/14 11:41:34;;;;;;;2.70;1.90;;;;;;;2.77;79.41;97706.09;5066728;28;20250;-72
2023/04/14 11:44:01;;;;;;;2.72;1.90;;;;;;;2.76;79.45;97699.19;5066321;28;20057;-70
2023/04/14 11:46:28;;;;;;;2.50;1.80;;;;;;;2.75;79.58;97722.81;5066446;28;20098;-70
2023/04/14 11:48:56;;;;;;;3.05;2.13;;;;;;;2.16;79.07;97622.00;5066427;28;20045;-71